createdAt,value
2022-11-24T00:01:40.941Z,5.42
2022-11-24T00:04:16.413Z,4.21
2022-11-24T00:06:49.462Z,3.35
2022-11-24T00:09:23.159Z,2.73
2022-11-24T00:11:56.380Z,2.27
2022-11-24T00:14:29.402Z,1.91
2022-11-24T00:17:02.530Z,1.59
2022-11-24T00:19:35.920Z,1.76
2022-11-24T00:22:09.700Z,3.56
2022-11-24T00:24:42.678Z,5.09
2022-11-24T00:27:16.303Z,5.23
2022-11-24T00:29:50.445Z,4.21
2022-11-24T00:32:24.257Z,3.22
2022-11-24T00:34:57.077Z,2.47
2022-11-24T00:37:30.275Z,2.37
2022-11-24T00:40:03.399Z,4.08
2022-11-24T00:42:36.645Z,5.40
2022-11-24T00:45:14.115Z,6.13
2022-11-24T00:47:47.625Z,6.13
2022-11-24T00:50:21.631Z,5.06
2022-11-24T00:52:54.605Z,3.97
2022-11-24T00:55:27.816Z,3.14
2022-11-24T00:58:00.916Z,2.47
2022-11-24T01:00:33.984Z,1.99
2022-11-24T01:03:08.040Z,2.80
2022-11-24T01:05:42.812Z,4.50
2022-11-24T01:08:16.547Z,5.59
2022-11-24T01:10:50.427Z,6.01
2022-11-24T01:13:23.616Z,5.03
2022-11-24T01:15:57.174Z,3.84
2022-11-24T01:18:30.427Z,2.96
2022-11-24T01:21:10.056Z,2.27
2022-11-24T01:23:44.218Z,2.94
2022-11-24T01:26:20.316Z,4.64
2022-11-24T01:28:59.311Z,5.58
2022-11-24T01:31:33.214Z,4.98
2022-11-24T01:34:06.840Z,3.79
2022-11-24T01:36:41.031Z,2.90
2022-11-24T01:39:14.869Z,2.29
2022-11-24T01:41:48.030Z,2.54
2022-11-24T01:44:32.072Z,4.29
2022-11-24T01:47:23.420Z,5.53
2022-11-24T01:50:01.603Z,6.40
2022-11-24T01:52:41.623Z,6.49
2022-11-24T01:55:21.062Z,5.38
2022-11-24T01:58:00.882Z,4.12
2022-11-24T02:00:35.986Z,3.22
2022-11-24T02:03:10.222Z,2.59
2022-11-24T02:05:51.259Z,2.11
2022-11-24T02:08:31.907Z,2.76
2022-11-24T02:11:07.727Z,4.90
2022-11-24T02:13:45.048Z,6.21
2022-11-24T02:16:18.279Z,6.77
2022-11-24T02:18:52.007Z,6.73
2022-11-24T02:21:25.349Z,5.49
2022-11-24T02:24:11.820Z,4.17
2022-11-24T02:26:49.127Z,3.13
2022-11-24T02:29:22.745Z,2.44
2022-11-24T02:32:00.973Z,3.27
2022-11-24T02:34:34.318Z,5.05
2022-11-24T02:37:07.863Z,5.65
2022-11-24T02:39:41.417Z,5.05
2022-11-24T02:42:17.298Z,3.91
2022-11-24T02:44:56.876Z,3.05
2022-11-24T02:47:31.631Z,2.41
2022-11-24T02:50:04.831Z,1.95
2022-11-24T02:52:37.881Z,1.94
2022-11-24T02:55:12.197Z,3.84
2022-11-24T02:57:47.403Z,5.52
2022-11-24T03:00:23.501Z,6.23
2022-11-24T03:02:56.595Z,6.61
2022-11-24T03:05:29.652Z,6.71
2022-11-24T03:08:02.668Z,5.61
2022-11-24T03:10:35.642Z,4.45
2022-11-24T03:13:08.746Z,3.59
2022-11-24T03:15:41.901Z,2.90
2022-11-24T03:18:15.559Z,2.37
2022-11-24T03:20:48.632Z,2.15
2022-11-24T03:23:21.693Z,3.78
2022-11-24T03:25:55.448Z,5.53
2022-11-24T03:28:28.661Z,6.51
2022-11-24T03:31:02.258Z,7.19
2022-11-24T03:33:35.687Z,7.38
2022-11-24T03:36:13.238Z,6.11
2022-11-24T03:38:46.907Z,4.78
2022-11-24T03:41:19.893Z,3.80
2022-11-24T03:43:53.128Z,3.04
2022-11-24T03:46:26.168Z,2.47
2022-11-24T03:48:59.254Z,2.01
2022-11-24T03:51:32.269Z,1.88
2022-11-24T03:54:05.343Z,3.30
2022-11-24T03:56:38.960Z,4.78
2022-11-24T03:59:15.231Z,5.83
2022-11-24T04:01:48.775Z,6.57
2022-11-24T04:04:22.007Z,6.74
2022-11-24T04:06:55.094Z,5.63
2022-11-24T04:09:28.129Z,4.47
2022-11-24T04:12:18.640Z,3.60
2022-11-24T04:14:51.766Z,2.92
2022-11-24T04:17:24.983Z,2.46
2022-11-24T04:19:58.121Z,2.11
2022-11-24T04:22:31.669Z,3.04
2022-11-24T04:25:05.646Z,4.80
2022-11-24T04:27:40.792Z,5.78
2022-11-24T04:30:15.444Z,6.09
2022-11-24T04:32:48.511Z,5.20
2022-11-24T04:35:23.219Z,4.07
2022-11-24T04:37:56.524Z,3.19
2022-11-24T04:40:30.501Z,2.53
2022-11-24T04:43:03.939Z,2.02
2022-11-24T04:45:37.044Z,2.22
2022-11-24T04:48:10.578Z,4.08
2022-11-24T04:50:44.161Z,5.53
2022-11-24T04:53:18.115Z,6.32
2022-11-24T04:55:51.633Z,6.68
2022-11-24T04:58:25.891Z,5.60
2022-11-24T05:01:00.334Z,4.42
2022-11-24T05:03:33.582Z,3.52
2022-11-24T05:06:09.346Z,2.86
2022-11-24T05:08:42.234Z,2.33
2022-11-24T05:11:15.784Z,2.76
2022-11-24T05:13:51.093Z,4.18
2022-11-24T05:16:24.121Z,5.30
2022-11-24T05:18:57.106Z,5.83
2022-11-24T05:21:31.240Z,6.10
2022-11-24T05:24:04.663Z,5.49
2022-11-24T05:26:38.456Z,4.37
2022-11-24T05:29:11.776Z,3.53
2022-11-24T05:31:45.013Z,2.89
2022-11-24T05:34:18.670Z,2.39
2022-11-24T05:36:54.695Z,1.94
2022-11-24T05:39:28.128Z,1.61
2022-11-24T05:42:23.189Z,1.80
2022-11-24T05:44:57.809Z,3.69
2022-11-24T05:47:31.342Z,5.20
2022-11-24T05:50:05.185Z,5.87
2022-11-24T05:52:39.041Z,6.47
2022-11-24T05:55:16.192Z,6.87
2022-11-24T05:57:49.146Z,7.23
2022-11-24T06:00:23.283Z,7.32
2022-11-24T06:02:58.437Z,6.22
2022-11-24T06:05:32.607Z,5.04
2022-11-24T06:08:06.022Z,4.13
2022-11-24T06:10:38.752Z,3.46
2022-11-24T06:13:12.396Z,2.91
2022-11-24T06:15:45.898Z,2.54
2022-11-24T06:18:19.041Z,3.70
2022-11-24T06:21:09.753Z,5.13
2022-11-24T06:23:45.393Z,5.95
2022-11-24T06:26:19.100Z,6.40
2022-11-24T06:28:52.674Z,6.82
2022-11-24T06:31:26.039Z,7.33
2022-11-24T06:34:00.993Z,7.42
2022-11-24T06:36:34.007Z,6.33
2022-11-24T06:39:08.221Z,5.12
2022-11-24T06:41:42.056Z,4.19
2022-11-24T06:44:15.552Z,3.53
2022-11-24T06:46:49.364Z,3.01
2022-11-24T06:49:22.588Z,2.62
2022-11-24T06:51:57.237Z,2.32
2022-11-24T06:54:31.063Z,2.06
2022-11-24T06:57:04.992Z,2.17
2022-11-24T06:59:38.816Z,3.91
2022-11-24T07:02:13.795Z,5.80
2022-11-24T07:04:46.880Z,6.85
2022-11-24T07:07:20.307Z,7.40
2022-11-24T07:09:53.413Z,7.62
2022-11-24T07:12:26.655Z,6.77
2022-11-24T07:14:59.540Z,5.69
2022-11-24T07:17:32.820Z,4.86
2022-11-24T07:20:06.659Z,4.23
2022-11-24T07:22:40.392Z,3.71
2022-11-24T07:25:14.932Z,3.35
2022-11-24T07:27:48.271Z,3.02
2022-11-24T07:30:22.044Z,2.76
2022-11-24T07:32:59.820Z,2.59
2022-11-24T07:35:34.028Z,3.67
2022-11-24T07:38:07.602Z,5.36
2022-11-24T07:40:41.078Z,6.73
2022-11-24T07:43:19.808Z,7.50
2022-11-24T07:45:57.988Z,7.82
2022-11-24T07:48:32.147Z,7.68
2022-11-24T07:51:06.754Z,6.54
2022-11-24T07:53:40.905Z,5.33
2022-11-24T07:56:14.698Z,4.45
2022-11-24T07:58:52.663Z,3.75
2022-11-24T08:01:26.834Z,3.20
2022-11-24T08:04:00.150Z,2.80
2022-11-24T08:06:39.699Z,2.70
2022-11-24T08:09:13.895Z,4.39
2022-11-24T08:11:47.477Z,6.00
2022-11-24T08:14:20.379Z,6.92
2022-11-24T08:16:54.126Z,7.34
2022-11-24T08:19:28.659Z,6.45
2022-11-24T08:22:02.726Z,5.39
2022-11-24T08:24:36.202Z,4.59
2022-11-24T08:27:10.207Z,4.02
2022-11-24T08:29:44.943Z,3.58
2022-11-24T08:32:22.236Z,3.24
2022-11-24T08:34:59.693Z,3.11
2022-11-24T08:37:42.095Z,4.56
2022-11-24T08:40:17.210Z,6.44
2022-11-24T08:42:50.401Z,7.66
2022-11-24T08:45:25.646Z,8.44
2022-11-24T08:48:00.343Z,7.94
2022-11-24T08:50:35.845Z,6.67
2022-11-24T08:53:09.278Z,5.66
2022-11-24T08:55:43.167Z,4.97
2022-11-24T08:58:16.845Z,4.35
2022-11-24T09:00:51.115Z,3.84
2022-11-24T09:03:24.302Z,3.41
2022-11-24T09:05:59.104Z,3.47
2022-11-24T09:08:34.551Z,5.60
2022-11-24T09:11:12.284Z,7.38
2022-11-24T09:13:46.208Z,8.42
2022-11-24T09:16:22.425Z,8.67
2022-11-24T09:19:02.721Z,7.47
2022-11-24T09:21:39.325Z,6.12
2022-11-24T09:24:16.777Z,5.13
2022-11-24T09:26:50.900Z,4.48
2022-11-24T09:29:24.508Z,3.97
2022-11-24T09:32:02.047Z,3.59
2022-11-24T09:34:38.061Z,3.66
2022-11-24T09:37:12.530Z,5.53
2022-11-24T09:39:46.473Z,7.19
2022-11-24T09:42:32.151Z,7.69
2022-11-24T09:45:41.996Z,6.53
2022-11-24T09:48:32.414Z,5.21
2022-11-24T09:51:11.932Z,4.35
2022-11-24T09:53:53.182Z,3.72
2022-11-24T09:56:30.300Z,3.31
2022-11-24T09:59:12.209Z,3.16
2022-11-24T10:01:48.672Z,4.66
2022-11-24T10:04:28.134Z,6.24
2022-11-24T10:07:17.626Z,7.43
2022-11-24T10:10:05.207Z,7.73
2022-11-24T10:12:59.388Z,6.62
2022-11-24T10:15:46.566Z,5.53
2022-11-24T10:18:47.176Z,4.77
2022-11-24T10:21:41.308Z,4.20
2022-11-24T10:24:50.137Z,3.74
2022-11-24T10:27:31.720Z,4.73
2022-11-24T10:30:13.373Z,6.75
2022-11-24T10:32:51.403Z,7.65
2022-11-24T10:35:36.879Z,7.34
2022-11-24T10:38:31.127Z,6.10
2022-11-24T10:41:13.955Z,5.03
2022-11-24T10:43:47.406Z,4.36
2022-11-24T10:46:32.539Z,3.84
2022-11-24T10:49:16.495Z,3.36
2022-11-24T10:52:18.383Z,3.68
2022-11-24T10:55:05.740Z,6.06
2022-11-24T10:57:41.908Z,7.58
2022-11-24T11:00:36.173Z,8.34
2022-11-24T11:03:24.799Z,7.75
2022-11-24T11:06:03.618Z,6.44
2022-11-24T11:08:37.259Z,5.52
2022-11-24T11:11:31.717Z,4.94
2022-11-24T11:14:07.921Z,4.43
2022-11-24T11:16:46.171Z,4.06
2022-11-24T11:22:28.709Z,6.35
2022-11-24T11:25:23.056Z,7.66
2022-11-24T11:28:28.449Z,8.26
2022-11-24T11:31:17.545Z,7.41
2022-11-24T11:34:07.333Z,6.29
2022-11-24T11:36:48.671Z,5.53
2022-11-24T11:39:34.047Z,5.01
2022-11-24T11:42:45.816Z,4.53
2022-11-24T11:45:23.056Z,3.99
2022-11-24T11:48:08.042Z,4.29
2022-11-24T11:54:02.049Z,8.05
2022-11-24T11:56:41.275Z,8.23
2022-11-24T11:59:43.168Z,7.00
2022-11-24T12:03:06.945Z,5.83
2022-11-24T12:05:58.317Z,4.86
2022-11-24T12:09:18.589Z,4.23
2022-11-24T12:11:51.710Z,3.67
2022-11-24T12:14:43.317Z,3.67
2022-11-24T12:17:30.918Z,5.64
2022-11-24T12:20:31.399Z,7.13
2022-11-24T12:23:22.372Z,8.13
2022-11-24T12:26:07.590Z,8.32
2022-11-24T12:28:59.075Z,7.27
2022-11-24T12:31:43.315Z,6.34
2022-11-24T12:34:42.098Z,5.70
2022-11-24T12:37:47.339Z,5.07
2022-11-24T12:40:46.670Z,4.50
2022-11-24T12:43:31.623Z,4.07
2022-11-24T12:46:17.747Z,4.21
2022-11-24T12:49:11.045Z,6.20
2022-11-24T12:51:50.685Z,7.89
2022-11-24T12:54:27.490Z,8.31
2022-11-24T12:57:09.605Z,7.37
2022-11-24T12:59:53.260Z,6.25
2022-11-24T13:02:46.665Z,5.46
2022-11-24T13:05:30.120Z,4.92
2022-11-24T13:08:07.742Z,4.54
2022-11-24T13:10:58.824Z,4.21
2022-11-24T13:14:00.127Z,3.92
2022-11-24T13:16:37.167Z,3.59
2022-11-24T13:19:21.825Z,3.38
2022-11-24T13:22:15.536Z,3.49
2022-11-24T13:25:05.857Z,5.84
2022-11-24T13:27:55.735Z,7.79
2022-11-24T13:31:10.070Z,8.69
2022-11-24T13:33:45.517Z,9.31
2022-11-24T13:36:53.845Z,9.38
2022-11-24T13:39:52.644Z,8.01
2022-11-24T13:42:43.428Z,6.87
2022-11-24T13:45:52.573Z,6.08
2022-11-24T13:49:01.731Z,5.41
2022-11-24T13:51:35.570Z,4.87
2022-11-24T13:54:15.496Z,4.49
2022-11-24T13:56:49.360Z,4.15
2022-11-24T13:59:35.810Z,3.84
2022-11-24T14:02:26.948Z,3.55
2022-11-24T14:05:01.478Z,3.29
2022-11-24T14:07:36.361Z,3.49
2022-11-24T14:10:19.573Z,5.36
2022-11-24T14:13:25.579Z,6.95
2022-11-24T14:16:18.089Z,7.99
2022-11-24T14:18:53.444Z,8.56
2022-11-24T14:21:38.740Z,8.59
2022-11-24T14:24:39.950Z,7.50
2022-11-24T14:27:21.680Z,6.23
2022-11-24T14:30:01.880Z,5.42
2022-11-24T14:32:35.643Z,4.81
2022-11-24T14:35:27.372Z,4.37
2022-11-24T14:38:02.947Z,3.96
2022-11-24T14:40:50.395Z,3.62
2022-11-24T14:43:35.010Z,3.26
2022-11-24T14:46:19.633Z,2.96
2022-11-24T14:48:55.892Z,2.70
2022-11-24T14:51:34.700Z,2.87
2022-11-24T14:54:19.839Z,4.85
2022-11-24T14:57:06.358Z,6.54
2022-11-24T14:59:40.754Z,7.36
2022-11-24T15:02:47.828Z,8.04
2022-11-24T15:05:22.595Z,7.87
2022-11-24T15:08:05.039Z,6.67
2022-11-24T15:10:42.498Z,5.52
2022-11-24T15:13:25.265Z,4.70
2022-11-24T15:16:03.908Z,4.08
2022-11-24T15:18:44.808Z,3.62
2022-11-24T15:21:32.072Z,3.26
2022-11-24T15:24:20.934Z,2.95
2022-11-24T15:27:02.218Z,2.69
2022-11-24T15:29:36.036Z,2.47
2022-11-24T15:32:17.330Z,2.79
2022-11-24T15:34:50.514Z,5.09
2022-11-24T15:37:23.591Z,6.64
2022-11-24T15:39:56.638Z,6.71
2022-11-24T15:42:29.489Z,5.69
2022-11-24T15:45:03.618Z,4.82
2022-11-24T15:47:36.959Z,4.18
2022-11-24T15:50:13.306Z,3.71
2022-11-24T15:52:47.574Z,3.35
2022-11-24T15:55:25.568Z,3.09
2022-11-24T15:57:59.821Z,4.32
2022-11-24T16:00:34.242Z,6.44
2022-11-24T16:03:38.338Z,7.68
2022-11-24T16:06:02.889Z,8.32
2022-11-24T16:08:36.998Z,8.77
2022-11-24T16:11:10.159Z,8.83
2022-11-24T16:13:50.109Z,7.73
2022-11-24T16:16:26.716Z,6.50
2022-11-24T16:19:01.734Z,5.63
2022-11-24T16:21:35.503Z,4.94
2022-11-24T16:24:10.810Z,4.40
2022-11-24T16:26:44.947Z,3.90
2022-11-24T16:29:21.486Z,3.49
2022-11-24T16:31:56.225Z,3.15
2022-11-24T16:34:29.758Z,2.90
2022-11-24T16:37:03.569Z,3.14
2022-11-24T16:39:36.812Z,5.21
2022-11-24T16:42:10.181Z,6.84
2022-11-24T16:44:43.717Z,7.09
2022-11-24T16:47:17.406Z,6.05
2022-11-24T16:49:51.888Z,5.09
2022-11-24T16:52:26.354Z,4.39
2022-11-24T16:55:01.956Z,3.88
2022-11-24T16:57:36.767Z,3.50
2022-11-24T17:00:13.720Z,3.20
2022-11-24T17:02:48.269Z,2.94
2022-11-24T17:05:21.825Z,2.73
2022-11-24T17:07:55.602Z,2.96
2022-11-24T17:10:29.489Z,5.03
2022-11-24T17:13:03.648Z,6.86
2022-11-24T17:15:45.322Z,7.72
2022-11-24T17:18:25.421Z,7.42
2022-11-24T17:21:07.754Z,6.29
2022-11-24T17:23:43.167Z,5.31
2022-11-24T17:26:19.922Z,4.64
2022-11-24T17:28:52.910Z,4.14
2022-11-24T17:31:28.678Z,3.76
2022-11-24T17:34:04.065Z,3.41
2022-11-24T17:36:39.055Z,3.15
2022-11-24T17:39:12.964Z,2.94
2022-11-24T17:41:47.371Z,3.32
2022-11-24T17:44:20.921Z,5.57
2022-11-24T17:46:54.616Z,7.22
2022-11-24T17:49:28.311Z,7.96
2022-11-24T17:52:01.886Z,8.38
2022-11-24T17:54:50.234Z,8.47
2022-11-24T17:57:26.950Z,7.25
2022-11-24T18:00:00.642Z,6.12
2022-11-24T18:02:34.234Z,5.24
2022-11-24T18:05:09.166Z,4.55
2022-11-24T18:07:42.436Z,4.04
2022-11-24T18:10:16.635Z,3.67
2022-11-24T18:12:50.626Z,3.36
2022-11-24T18:15:23.794Z,3.09
2022-11-24T18:17:57.930Z,2.85
2022-11-24T18:20:33.006Z,3.06
2022-11-24T18:23:06.381Z,4.81
2022-11-24T18:25:39.587Z,6.49
2022-11-24T18:28:13.345Z,7.58
2022-11-24T18:30:46.595Z,8.12
2022-11-24T18:33:21.306Z,8.11
2022-11-24T18:36:04.907Z,7.06
2022-11-24T18:38:40.331Z,5.95
2022-11-24T18:41:15.589Z,5.18
2022-11-24T18:43:49.568Z,4.62
2022-11-24T18:46:23.771Z,4.17
2022-11-24T18:48:58.003Z,3.80
2022-11-24T18:51:31.425Z,3.70
2022-11-24T18:54:05.742Z,5.46
2022-11-24T18:56:38.980Z,7.18
2022-11-24T18:59:13.882Z,7.83
2022-11-24T19:01:47.648Z,8.07
2022-11-24T19:04:21.885Z,7.65
2022-11-24T19:06:55.617Z,6.60
2022-11-24T19:09:30.191Z,5.74
2022-11-24T19:12:04.236Z,5.10
2022-11-24T19:14:38.412Z,4.58
2022-11-24T19:17:11.446Z,4.13
2022-11-24T19:19:45.474Z,3.75
2022-11-24T19:22:19.781Z,3.44
2022-11-24T19:24:53.205Z,3.21
2022-11-24T19:27:26.398Z,4.27
2022-11-24T19:30:00.180Z,6.27
2022-11-24T19:32:35.845Z,6.60
2022-11-24T19:35:10.613Z,5.64
2022-11-24T19:37:43.542Z,4.79
2022-11-24T19:40:18.767Z,4.19
2022-11-24T19:42:52.798Z,3.75
2022-11-24T19:45:26.096Z,4.25
2022-11-24T19:47:59.765Z,6.02
2022-11-24T19:50:32.466Z,6.66
2022-11-24T19:53:05.793Z,5.72
2022-11-24T19:55:39.056Z,4.74
2022-11-24T19:58:12.763Z,4.21
2022-11-24T20:00:46.806Z,5.40
2022-11-24T20:03:20.026Z,6.49
2022-11-24T20:06:00.695Z,5.86
2022-11-24T20:08:36.434Z,4.88
2022-11-24T20:11:13.634Z,4.33
2022-11-24T20:13:53.066Z,5.84
2022-11-24T20:16:30.045Z,6.92
2022-11-24T20:19:06.090Z,5.99
2022-11-24T20:21:41.723Z,4.96
2022-11-24T20:24:18.199Z,4.26
2022-11-24T20:26:54.725Z,3.77
2022-11-24T20:29:29.468Z,3.41
2022-11-24T20:32:02.777Z,4.19
2022-11-24T20:34:37.767Z,6.20
2022-11-24T20:37:13.593Z,7.38
2022-11-24T20:39:48.011Z,8.10
2022-11-24T20:42:21.020Z,8.33
2022-11-24T20:44:54.315Z,7.23
2022-11-24T20:47:27.962Z,6.12
2022-11-24T20:50:01.188Z,5.31
2022-11-24T20:52:35.009Z,4.72
2022-11-24T20:55:10.050Z,4.17
2022-11-24T20:57:43.209Z,3.71
2022-11-24T21:00:18.241Z,3.37
2022-11-24T21:02:51.745Z,4.62
2022-11-24T21:05:26.850Z,6.30
2022-11-24T21:07:59.781Z,6.99
2022-11-24T21:10:33.047Z,6.27
2022-11-24T21:13:07.091Z,5.16
2022-11-24T21:15:40.461Z,4.39
2022-11-24T21:18:14.621Z,3.86
2022-11-24T21:20:49.367Z,3.46
2022-11-24T21:23:22.476Z,3.23
2022-11-24T21:26:05.175Z,4.53
2022-11-24T21:28:39.267Z,6.04
2022-11-24T21:31:16.973Z,6.81
2022-11-24T21:33:52.302Z,7.40
2022-11-24T21:36:28.079Z,7.35
2022-11-24T21:39:03.134Z,6.35
2022-11-24T21:41:37.922Z,5.45
2022-11-24T21:44:11.731Z,4.76
2022-11-24T21:46:52.465Z,4.26
2022-11-24T21:49:29.333Z,4.16
2022-11-24T21:52:02.874Z,5.78
2022-11-24T21:54:36.868Z,6.82
2022-11-24T23:04:30.470Z,5.67
2022-11-24T23:07:04.276Z,7.17
2022-11-24T23:09:38.241Z,6.85
2022-11-24T23:12:12.313Z,5.74
2022-11-24T23:14:46.178Z,4.89
2022-11-24T23:17:20.030Z,4.30
2022-11-24T23:19:53.483Z,3.88
2022-11-24T23:22:26.881Z,3.89
2022-11-24T23:25:00.596Z,5.53
2022-11-24T23:27:34.350Z,6.69
2022-11-24T23:30:09.830Z,7.05
2022-11-24T23:32:43.868Z,6.36
2022-11-24T23:35:17.541Z,5.45
2022-11-24T23:38:07.562Z,4.77
2022-11-24T23:40:42.378Z,4.21
2022-11-24T23:43:15.766Z,3.84
2022-11-24T23:45:49.711Z,4.08
2022-11-24T23:48:23.477Z,5.82
2022-11-24T23:50:57.432Z,7.09
2022-11-24T23:53:34.484Z,7.73
2022-11-24T23:56:08.939Z,8.29
2022-11-24T23:58:43.103Z,8.21
